Aeroporto :
LOGIN :

Iscrizione | Disclaimer

   EN    FR    IT 

 










Sommario :    VFR   VFR Marginale   IFR   IFR Intensivo   IFR Molto Intensivo
Visibilità : 
Base nubi : 
>= 8 km
>= 3000ft
5 / 8 km
1000 / 3000 ft
1500m / 5 km
500 / 1000 ft
800 / 1500m
200 / 500 ft
< 800m
< 200 ft
Simboli :   Temporali  Nebbia  Neve Forte  Precipitazioni Forti  Vento > 20 kt
SIGMETs :   Varie  Temporali  Ghiacco  Turbolenza  Onda orograficha  Ceneri Vulcaniche







- Altitudine del aeroporto : 526 ft
- Codice IATA : LTN
- Carte del aeroporto


EGGW - London Luton

ULTIMO METAR :
  • 172150Z AUTO 21004KT 9999 NCD 15/12 Q1005

METARs OBSOLETI :
  • 172120Z AUTO 21004KT 9999 BKN046 16/11 Q1005
  • 172050Z AUTO 22006KT 9999 SCT033 BKN041 17/11 Q1005
  • 172020Z AUTO 25008KT 9999 BKN033 OVC042 17/11 Q1005
  • 171950Z AUTO 23004KT 9999 SCT035 BKN046 17/11 Q1004

TAF TAF EGGW
Valido dal 17 a 18 ore il 18 a 18 ore UTC


171657Z 1718/1818 24012KT 9999 FEW015
PROB30
TEMPO 1721/1803 9000 -RA BKN010
TEMPO 1809/1815 24015G25KT
PROB30
TEMPO 1810/1813 5000 +SHRA
PROB30
TEMPO 1813/1815 7000 SHRA
ATIS : +44 1582 395 204
Nessun NOTAM noto per questo aeroporto.



MetMap, La meteo Aeronautica in un colpo d'occhio ! - Copyright ORBIFLY Dicembre 2007 - Disclaimer

ORBIFLY MET'MAP TEAM :

Programmazione e sviluppo : Alexandra Zaïnal
Concezione e sviluppo : Baudouin d'Aumeries
Co-Programmazione e sviluppo : Marc-Olivier Méhu
Supporto tecnico e logistico : Manuel Goepfert
Aiuto per la traduzione : Arnaldo La Scala

Contatto : metmap@orbifly.com




FONTI E CREDITI :

   NOAA